Time;durP1;ratioP1;P1;durP2;ratioP2;P2;SDS_P1;SDS_P2;PMS_P1;PMS_P2;Temp;Humidity;BMP_temperature;BMP_pressure;BME280_temperature;BME280_humidity;BME280_pressure;Samples;Min_cycle;Max_cycle;Signal;HPM_P1;HPM_P2
2024/02/16 00:03:31;;;;;;;8.80;3.40;;;11.80;99.90;;;;;;8453149;28;20055;-73
2024/02/16 00:07:33;;;;;;;6.85;4.35;;;11.80;99.90;;;;;;8452088;28;20089;-73
2024/02/16 00:11:36;;;;;;;8.38;3.80;;;11.80;99.90;;;;;;8453082;28;20079;-73
2024/02/16 00:15:38;;;;;;;7.30;4.15;;;11.70;99.90;;;;;;8446413;28;20129;-73
2024/02/16 00:19:40;;;;;;;6.40;3.65;;;11.70;99.90;;;;;;8452007;28;20051;-73
2024/02/16 00:24:08;;;;;;;8.02;3.35;;;11.70;99.90;;;;;;8453290;28;20127;-73
2024/02/16 00:28:10;;;;;;;7.65;3.70;;;11.60;99.90;;;;;;8451416;28;20394;-73
2024/02/16 00:32:12;;;;;;;7.88;3.83;;;11.60;99.90;;;;;;8449969;28;20399;-73
2024/02/16 00:36:14;;;;;;;6.90;3.78;;;11.60;99.90;;;;;;8446543;28;20040;-73
2024/02/16 00:40:16;;;;;;;7.38;3.63;;;11.60;99.90;;;;;;8451834;28;20058;-73
2024/02/16 00:44:18;;;;;;;7.30;3.85;;;11.60;99.90;;;;;;8451612;27;20100;-73
2024/02/16 00:48:20;;;;;;;6.38;3.30;;;11.60;99.90;;;;;;8440957;28;20430;-73
2024/02/16 00:52:22;;;;;;;7.30;3.72;;;11.50;99.90;;;;;;8455918;28;20055;-73
2024/02/16 00:56:24;;;;;;;6.38;3.55;;;11.50;99.90;;;;;;8452900;28;20048;-73
2024/02/16 01:00:26;;;;;;;8.18;3.90;;;11.50;99.90;;;;;;8451737;28;20539;-73
2024/02/16 01:04:29;;;;;;;9.63;4.13;;;11.50;99.90;;;;;;8455720;28;20055;-73
2024/02/16 01:08:32;;;;;;;8.18;4.32;;;11.50;99.90;;;;;;8453081;28;20152;-73
2024/02/16 01:12:34;;;;;;;8.00;3.78;;;11.50;99.90;;;;;;8445421;28;20043;-73
2024/02/16 01:16:36;;;;;;;6.88;3.65;;;11.40;99.90;;;;;;8449243;28;20142;-72
2024/02/16 01:20:37;;;;;;;8.30;4.18;;;11.40;99.90;;;;;;8450727;28;20043;-73
2024/02/16 01:24:39;;;;;;;7.75;4.20;;;11.40;99.90;;;;;;8455607;28;20043;-73
2024/02/16 01:28:41;;;;;;;6.55;3.80;;;11.40;99.90;;;;;;8449704;28;20486;-73
2024/02/16 01:32:43;;;;;;;6.63;3.30;;;11.40;99.90;;;;;;8444871;28;20051;-73
2024/02/16 01:36:44;;;;;;;9.35;4.05;;;11.40;99.90;;;;;;8452380;28;20046;-73
2024/02/16 01:40:46;;;;;;;7.53;4.00;;;11.40;99.90;;;;;;8450902;28;20048;-73
2024/02/16 01:44:48;;;;;;;6.25;4.03;;;11.30;99.90;;;;;;8444686;28;20081;-73
2024/02/16 01:48:50;;;;;;;10.38;3.97;;;11.30;99.90;;;;;;8441049;28;20039;-73
2024/02/16 01:52:52;;;;;;;7.38;3.97;;;11.30;99.90;;;;;;8450138;28;20039;-74
2024/02/16 02:02:16;;;;;;;6.10;3.22;;;11.30;99.90;;;;;;8448092;28;20413;-73
2024/02/16 02:06:18;;;;;;;6.10;3.20;;;11.30;99.90;;;;;;8446912;28;20399;-73
2024/02/16 02:10:20;;;;;;;6.00;3.85;;;11.30;99.90;;;;;;8450979;28;20407;-73
2024/02/16 02:14:25;;;;;;;6.30;4.00;;;11.30;99.90;;;;;;8446553;28;20101;-73
2024/02/16 02:18:26;;;;;;;7.85;3.85;;;11.30;99.90;;;;;;8447739;28;20511;-73
2024/02/16 02:22:28;;;;;;;8.77;4.03;;;11.30;99.90;;;;;;8450016;28;20089;-73
2024/02/16 02:26:30;;;;;;;6.20;3.40;;;11.30;99.90;;;;;;8449166;28;20048;-73
2024/02/16 02:30:32;;;;;;;6.22;3.53;;;11.30;99.90;;;;;;8446334;28;20505;-73
2024/02/16 02:34:36;;;;;;;6.53;3.30;;;11.30;99.90;;;;;;8449100;28;20372;-73
2024/02/16 02:38:53;;;;;;;6.72;3.78;;;11.30;99.90;;;;;;8437674;28;20482;-73
2024/02/16 02:42:55;;;;;;;6.85;3.78;;;11.30;99.90;;;;;;8446794;28;20131;-73
2024/02/16 02:46:57;;;;;;;6.43;4.00;;;11.20;99.90;;;;;;8450868;28;20409;-73
2024/02/16 02:50:59;;;;;;;6.18;3.55;;;11.20;99.90;;;;;;8453602;28;20043;-73
2024/02/16 02:55:07;;;;;;;6.57;3.83;;;11.30;99.90;;;;;;8446061;28;21735;-73
2024/02/16 02:59:10;;;;;;;7.25;3.72;;;11.20;99.90;;;;;;8445461;28;20047;-73
2024/02/16 03:03:13;;;;;;;6.00;3.00;;;11.20;99.90;;;;;;8455369;28;20048;-73
2024/02/16 03:07:15;;;;;;;6.50;3.55;;;11.20;99.90;;;;;;8449799;28;20359;-73
2024/02/16 03:11:17;;;;;;;5.57;3.30;;;11.20;99.90;;;;;;8454709;28;20067;-73
2024/02/16 03:15:19;;;;;;;7.00;3.83;;;11.10;99.90;;;;;;8450963;27;20111;-73
2024/02/16 03:19:21;;;;;;;6.32;3.53;;;11.10;99.90;;;;;;8459491;28;20055;-73
2024/02/16 03:23:24;;;;;;;8.48;3.88;;;11.10;99.90;;;;;;8451700;28;20058;-73
2024/02/16 03:27:26;;;;;;;5.80;3.58;;;11.10;99.90;;;;;;8447282;28;20054;-73
2024/02/16 03:31:28;;;;;;;8.30;4.38;;;11.00;99.90;;;;;;8458309;28;20100;-73
2024/02/16 03:40:29;;;;;;;7.28;3.72;;;10.90;99.90;;;;;;8452477;28;20048;-73
2024/02/16 03:44:31;;;;;;;6.03;3.28;;;10.90;99.90;;;;;;8449681;28;20035;-73
2024/02/16 03:48:33;;;;;;;6.88;3.58;;;10.90;99.90;;;;;;8456068;28;20092;-73
2024/02/16 03:52:35;;;;;;;7.10;3.38;;;10.90;99.90;;;;;;8456989;28;20473;-73
2024/02/16 03:56:36;;;;;;;8.68;3.47;;;10.90;99.90;;;;;;8453066;28;20050;-73
2024/02/16 04:00:38;;;;;;;6.95;3.10;;;10.90;99.90;;;;;;8455699;28;20047;-73
2024/02/16 04:04:40;;;;;;;7.03;3.67;;;10.90;99.90;;;;;;8455913;28;20486;-73
2024/02/16 04:08:42;;;;;;;5.30;2.97;;;10.90;99.90;;;;;;8453360;28;20040;-73
2024/02/16 04:12:43;;;;;;;5.80;3.30;;;10.90;99.90;;;;;;8453878;28;20082;-73
2024/02/16 04:16:45;;;;;;;7.32;3.28;;;10.90;99.90;;;;;;8433113;28;20048;-73
2024/02/16 04:21:43;;;;;;;5.97;3.00;;;10.90;99.90;;;;;;8454587;27;20046;-73
2024/02/16 04:25:45;;;;;;;7.15;3.50;;;10.90;99.90;;;;;;8443461;28;20093;-73
2024/02/16 04:29:47;;;;;;;7.28;3.45;;;10.80;99.90;;;;;;8452141;28;20383;-73
2024/02/16 04:33:49;;;;;;;6.55;3.30;;;10.80;99.90;;;;;;8456119;27;20447;-73
2024/02/16 04:38:25;;;;;;;6.53;3.10;;;10.80;99.90;;;;;;8452497;28;20131;-73
2024/02/16 04:42:27;;;;;;;7.05;3.58;;;10.80;99.90;;;;;;8445560;28;20056;-73
2024/02/16 04:46:29;;;;;;;6.20;3.28;;;10.80;99.90;;;;;;8453770;28;20058;-73
2024/02/16 04:50:33;;;;;;;5.63;3.40;;;10.80;99.90;;;;;;8461797;27;20055;-73
2024/02/16 05:00:11;;;;;;;6.43;3.65;;;10.80;99.90;;;;;;8451883;28;20135;-73
2024/02/16 05:04:16;;;;;;;5.90;3.17;;;10.70;99.90;;;;;;8449906;28;20436;-73
2024/02/16 05:08:21;;;;;;;6.50;3.38;;;10.70;99.90;;;;;;8451023;28;20134;-73
2024/02/16 05:12:23;;;;;;;6.70;3.47;;;10.70;99.90;;;;;;8443422;28;20043;-73
2024/02/16 05:16:26;;;;;;;5.28;3.13;;;10.70;99.90;;;;;;8455902;28;20047;-73
2024/02/16 05:20:28;;;;;;;6.50;3.15;;;10.70;99.90;;;;;;8450078;28;20062;-73
2024/02/16 05:24:29;;;;;;;6.10;2.80;;;10.70;99.90;;;;;;8450051;28;20043;-73
2024/02/16 05:28:31;;;;;;;6.40;3.22;;;10.70;99.90;;;;;;8451582;28;20566;-73
2024/02/16 05:32:37;;;;;;;7.05;3.58;;;10.80;99.90;;;;;;8453012;27;20494;-73
2024/02/16 05:36:39;;;;;;;7.05;3.20;;;10.80;99.90;;;;;;8453259;28;20036;-73
2024/02/16 05:40:53;;;;;;;5.13;2.75;;;10.80;99.90;;;;;;8452306;27;20055;-73
2024/02/16 05:44:55;;;;;;;8.10;3.30;;;10.80;99.90;;;;;;8452779;27;20043;-73
2024/02/16 05:48:57;;;;;;;5.88;3.03;;;10.90;99.90;;;;;;8461631;27;20078;-73
2024/02/16 05:52:59;;;;;;;5.75;3.22;;;10.90;99.90;;;;;;8457699;28;20455;-73
2024/02/16 05:57:01;;;;;;;5.57;3.22;;;10.90;99.90;;;;;;8449621;28;20445;-73
2024/02/16 06:01:03;;;;;;;8.07;3.75;;;10.80;99.90;;;;;;8452116;28;20070;-73
2024/02/16 06:05:05;;;;;;;6.40;3.50;;;10.80;99.90;;;;;;8452818;28;20055;-73
2024/02/16 06:09:07;;;;;;;6.78;3.17;;;10.90;99.90;;;;;;8444969;28;20040;-73
2024/02/16 06:13:09;;;;;;;6.93;3.42;;;10.90;99.90;;;;;;8425532;28;20043;-73
2024/02/16 06:17:11;;;;;;;5.25;2.80;;;10.90;99.90;;;;;;8421572;28;20089;-73
2024/02/16 06:21:13;;;;;;;7.57;3.20;;;10.90;99.90;;;;;;8423243;28;20490;-73
2024/02/16 06:25:15;;;;;;;6.22;3.15;;;10.90;99.90;;;;;;8449706;27;20122;-73
2024/02/16 06:29:19;;;;;;;6.65;2.60;;;10.90;99.90;;;;;;8422428;28;20043;-73
2024/02/16 06:33:21;;;;;;;6.05;3.63;;;10.90;99.90;;;;;;8432648;28;20052;-73
2024/02/16 06:37:23;;;;;;;6.05;3.47;;;10.90;99.90;;;;;;8428720;28;20047;-73
2024/02/16 06:41:25;;;;;;;6.90;3.30;;;10.90;99.90;;;;;;8421040;28;20052;-73
2024/02/16 06:45:29;;;;;;;6.32;3.80;;;10.90;99.90;;;;;;8418115;28;20759;-72
2024/02/16 06:49:31;;;;;;;6.28;2.83;;;10.90;99.90;;;;;;8436915;27;20036;-72
2024/02/16 06:53:33;;;;;;;6.97;3.72;;;10.90;99.90;;;;;;8435377;28;20050;-73
2024/02/16 06:57:34;;;;;;;6.38;3.80;;;10.90;99.90;;;;;;8445674;28;20131;-73
2024/02/16 07:01:36;;;;;;;6.53;3.88;;;10.90;99.90;;;;;;8442346;27;20138;-73
2024/02/16 07:05:39;;;;;;;6.07;3.20;;;11.00;99.90;;;;;;8440872;27;20044;-72
2024/02/16 07:09:42;;;;;;;6.05;3.40;;;11.00;99.90;;;;;;8445906;27;21049;-73
2024/02/16 07:13:44;;;;;;;6.57;3.22;;;11.10;99.90;;;;;;8436012;28;20105;-72
2024/02/16 07:17:46;;;;;;;7.05;4.05;;;11.10;99.90;;;;;;8428722;28;20406;-72
2024/02/16 07:21:48;;;;;;;6.18;3.60;;;11.20;99.90;;;;;;8428937;28;20135;-72
2024/02/16 07:25:50;;;;;;;8.32;3.60;;;11.30;99.90;;;;;;8429620;27;20047;-72
2024/02/16 07:29:52;;;;;;;6.88;4.15;;;11.40;99.90;;;;;;8435857;28;20051;-72
2024/02/16 07:33:54;;;;;;;7.78;3.95;;;11.50;99.90;;;;;;8439200;28;20479;-72
2024/02/16 07:37:56;;;;;;;8.48;3.78;;;11.50;99.90;;;;;;8438349;28;20047;-72
2024/02/16 07:41:57;;;;;;;6.72;3.70;;;11.60;99.90;;;;;;8437668;28;20113;-72
2024/02/16 07:45:59;;;;;;;7.45;4.05;;;11.70;99.90;;;;;;8433017;28;20044;-72
2024/02/16 07:50:03;;;;;;;8.60;3.85;;;11.80;99.90;;;;;;8434639;28;20047;-72
2024/02/16 07:54:06;;;;;;;6.13;3.80;;;11.80;99.90;;;;;;8437358;28;20044;-72
2024/02/16 07:58:09;;;;;;;8.57;4.20;;;11.80;99.90;;;;;;8439652;28;20040;-72
2024/02/16 08:02:15;;;;;;;7.30;4.80;;;11.90;99.90;;;;;;8435094;28;20052;-72
2024/02/16 08:06:20;;;;;;;8.07;3.83;;;12.00;99.90;;;;;;8424185;28;20449;-72
2024/02/16 08:10:22;;;;;;;8.10;4.53;;;12.00;99.90;;;;;;8421643;27;20062;-72
2024/02/16 08:14:24;;;;;;;7.90;4.40;;;12.10;99.90;;;;;;8425532;28;20043;-72
2024/02/16 08:18:25;;;;;;;6.90;4.43;;;12.20;99.90;;;;;;8423332;28;20043;-72
2024/02/16 08:22:27;;;;;;;7.93;4.55;;;12.20;99.90;;;;;;8428158;28;20052;-72
2024/02/16 08:26:29;;;;;;;7.93;4.28;;;12.30;99.90;;;;;;8436725;28;20079;-72
2024/02/16 08:30:31;;;;;;;8.82;4.65;;;12.30;99.90;;;;;;8424064;28;20049;-72
2024/02/16 08:34:36;;;;;;;8.45;4.85;;;12.40;99.90;;;;;;8438339;27;20063;-72
2024/02/16 08:38:38;;;;;;;7.13;4.32;;;12.40;99.90;;;;;;8435177;28;20141;-72
2024/02/16 08:42:42;;;;;;;6.45;3.63;;;12.50;99.90;;;;;;8431242;28;20868;-72
2024/02/16 08:46:44;;;;;;;8.07;4.45;;;12.50;99.90;;;;;;8431142;28;20131;-72
2024/02/16 08:50:46;;;;;;;7.97;4.97;;;12.60;99.90;;;;;;8429654;28;20153;-72
2024/02/16 08:54:47;;;;;;;8.98;5.10;;;12.60;99.90;;;;;;8421051;28;20040;-72
2024/02/16 08:58:49;;;;;;;9.05;5.32;;;12.70;99.90;;;;;;8422372;28;20073;-72
2024/02/16 09:02:51;;;;;;;9.57;4.53;;;12.70;99.90;;;;;;8431598;27;20043;-72
2024/02/16 09:06:53;;;;;;;9.38;4.90;;;12.80;99.90;;;;;;8429716;28;20043;-72
2024/02/16 09:10:55;;;;;;;9.18;4.95;;;12.80;99.90;;;;;;8432565;28;20402;-72
2024/02/16 09:14:57;;;;;;;10.88;5.32;;;12.80;99.90;;;;;;8427915;27;20083;-72
2024/02/16 09:18:59;;;;;;;9.25;4.82;;;12.70;99.90;;;;;;8435019;28;20067;-72
2024/02/16 09:23:02;;;;;;;10.32;5.30;;;12.60;99.90;;;;;;8442593;28;20043;-72
2024/02/16 09:27:04;;;;;;;8.32;5.10;;;12.50;99.90;;;;;;8438732;28;20052;-72
2024/02/16 09:31:07;;;;;;;9.07;4.82;;;12.40;99.90;;;;;;8426302;28;20047;-72
2024/02/16 09:35:09;;;;;;;7.65;5.07;;;12.30;99.90;;;;;;8429171;28;20051;-72
2024/02/16 09:39:11;;;;;;;10.77;5.47;;;12.30;99.90;;;;;;8430602;28;20116;-72
2024/02/16 09:43:27;;;;;;;10.68;5.03;;;12.30;99.90;;;;;;8434898;28;20047;-72
2024/02/16 09:47:32;;;;;;;10.18;5.07;;;12.40;99.90;;;;;;8434399;28;20056;-72
2024/02/16 09:51:37;;;;;;;9.50;5.25;;;12.50;99.90;;;;;;8438123;28;20050;-72
2024/02/16 09:55:40;;;;;;;10.00;5.25;;;12.50;99.90;;;;;;8424053;28;20044;-72
2024/02/16 09:59:42;;;;;;;9.15;5.70;;;12.60;99.90;;;;;;8423549;28;20150;-72
2024/02/16 10:03:43;;;;;;;10.05;5.35;;;12.60;99.90;;;;;;8435816;28;20048;-72
2024/02/16 10:07:47;;;;;;;7.60;4.75;;;12.50;99.90;;;;;;8433224;28;20083;-72
2024/02/16 10:11:48;;;;;;;9.82;5.78;;;12.50;99.90;;;;;;8430606;28;20052;-72
2024/02/16 10:15:50;;;;;;;8.25;5.10;;;12.40;99.90;;;;;;8437021;28;20048;-72
2024/02/16 10:19:56;;;;;;;9.82;5.80;;;12.30;99.90;;;;;;8443347;28;20062;-72
2024/02/16 10:24:02;;;;;;;9.67;5.63;;;12.30;99.90;;;;;;8469088;27;20073;-72
2024/02/16 10:28:06;;;;;;;9.65;5.93;;;12.20;99.90;;;;;;8442471;28;20051;-72
2024/02/16 10:32:08;;;;;;;10.55;5.82;;;12.20;99.90;;;;;;8425255;28;20043;-73
2024/02/16 10:36:11;;;;;;;10.77;6.15;;;12.20;99.90;;;;;;8434747;28;20125;-73
2024/02/16 10:40:17;;;;;;;9.85;6.50;;;12.10;99.90;;;;;;8434102;28;20064;-73
2024/02/16 10:44:20;;;;;;;9.80;6.17;;;12.10;99.90;;;;;;8438125;28;20051;-73
2024/02/16 10:48:21;;;;;;;9.55;5.80;;;12.00;99.90;;;;;;8438843;28;20863;-73
2024/02/16 10:52:25;;;;;;;10.95;5.93;;;12.00;99.90;;;;;;8442487;28;20051;-73
2024/02/16 10:56:31;;;;;;;10.40;6.38;;;12.00;99.90;;;;;;8434480;28;20481;-73
2024/02/16 11:00:33;;;;;;;10.38;6.70;;;11.90;99.90;;;;;;8440102;28;20414;-73
2024/02/16 11:04:39;;;;;;;10.70;6.47;;;11.90;99.90;;;;;;8435156;28;20078;-73
2024/02/16 11:08:41;;;;;;;12.80;7.55;;;11.80;99.90;;;;;;8439466;28;20514;-73
2024/02/16 11:12:46;;;;;;;10.63;6.85;;;11.80;99.90;;;;;;8458845;27;20047;-73
2024/02/16 11:16:48;;;;;;;11.02;6.80;;;11.80;99.90;;;;;;8426597;28;20556;-73
2024/02/16 11:20:50;;;;;;;9.65;7.13;;;11.90;99.90;;;;;;8442497;27;20048;-73
2024/02/16 11:24:54;;;;;;;12.05;7.18;;;11.80;99.90;;;;;;8432544;28;20051;-73
2024/02/16 11:29:01;;;;;;;13.82;8.32;;;11.80;99.90;;;;;;8433131;27;20876;-73
2024/02/16 11:33:03;;;;;;;11.13;7.10;;;11.80;99.90;;;;;;8431441;28;20051;-73
2024/02/16 11:37:05;;;;;;;12.95;7.80;;;11.80;99.90;;;;;;8432338;28;20466;-73
2024/02/16 11:41:07;;;;;;;14.05;7.60;;;11.80;99.90;;;;;;8430418;28;20051;-73
2024/02/16 11:45:13;;;;;;;12.70;8.30;;;11.80;99.90;;;;;;8425154;28;20051;-73
2024/02/16 11:49:17;;;;;;;13.63;8.55;;;11.80;99.90;;;;;;8419179;28;20544;-72
2024/02/16 11:53:19;;;;;;;13.50;8.55;;;11.80;99.90;;;;;;8422338;28;20047;-73
2024/02/16 11:57:22;;;;;;;14.93;9.13;;;11.80;99.90;;;;;;8428053;28;20055;-73
2024/02/16 12:01:24;;;;;;;11.32;7.90;;;11.80;99.90;;;;;;8436787;28;20048;-72
2024/02/16 12:05:26;;;;;;;17.30;9.00;;;11.70;99.90;;;;;;8445919;28;20051;-72
2024/02/16 12:09:28;;;;;;;15.27;8.48;;;11.70;99.90;;;;;;8441853;28;20055;-73
2024/02/16 12:13:30;;;;;;;13.15;9.18;;;11.70;99.90;;;;;;8437421;27;20043;-72
2024/02/16 12:17:32;;;;;;;12.55;8.40;;;11.70;99.90;;;;;;8439956;28;20040;-72
2024/02/16 12:21:35;;;;;;;14.27;9.10;;;11.80;99.90;;;;;;8440391;27;20150;-72
2024/02/16 12:25:36;;;;;;;11.43;7.82;;;11.70;99.90;;;;;;8442452;28;20046;-72
2024/02/16 12:29:39;;;;;;;11.98;7.78;;;11.70;99.90;;;;;;8439424;27;20044;-72
2024/02/16 12:33:41;;;;;;;11.02;7.03;;;11.80;99.90;;;;;;8437855;28;20041;-73
2024/02/16 12:37:45;;;;;;;9.88;6.30;;;11.70;99.90;;;;;;8436960;28;20039;-73
2024/02/16 12:41:48;;;;;;;8.23;5.32;;;11.80;99.90;;;;;;8434562;28;20059;-73
2024/02/16 12:45:50;;;;;;;8.40;4.80;;;11.80;99.90;;;;;;8438059;27;20047;-72
2024/02/16 12:49:57;;;;;;;7.15;4.30;;;11.80;99.90;;;;;;8445304;28;20090;-73
2024/02/16 12:54:03;;;;;;;7.95;4.18;;;11.80;99.90;;;;;;8436846;28;20793;-73
2024/02/16 12:58:05;;;;;;;8.43;3.50;;;11.80;99.90;;;;;;8429071;28;20139;-73
2024/02/16 13:02:07;;;;;;;4.85;2.85;;;11.80;99.90;;;;;;8426757;28;20565;-72
2024/02/16 13:06:11;;;;;;;6.70;3.88;;;11.90;99.90;;;;;;8440067;27;20134;-72
2024/02/16 13:10:13;;;;;;;6.60;3.28;;;11.90;99.90;;;;;;8437576;28;20036;-73
2024/02/16 13:14:16;;;;;;;4.85;2.70;;;12.00;99.90;;;;;;8439312;28;20097;-72
2024/02/16 13:18:18;;;;;;;5.53;2.97;;;12.10;99.90;;;;;;8437652;28;20054;-72
2024/02/16 13:22:19;;;;;;;8.27;3.00;;;12.10;99.90;;;;;;8435603;28;20048;-72
2024/02/16 13:26:21;;;;;;;4.43;2.42;;;12.10;99.90;;;;;;8423295;28;20545;-73
2024/02/16 13:30:23;;;;;;;6.00;3.20;;;12.20;99.90;;;;;;8438260;28;21560;-72
2024/02/16 13:34:26;;;;;;;5.10;2.72;;;12.20;99.90;;;;;;8435374;28;20087;-73
2024/02/16 13:38:28;;;;;;;5.75;2.60;;;12.20;99.90;;;;;;8438037;28;20048;-73
2024/02/16 13:42:31;;;;;;;4.97;2.42;;;12.20;99.90;;;;;;8434618;28;20063;-72
2024/02/16 13:46:33;;;;;;;5.63;2.63;;;12.30;99.90;;;;;;8422128;28;20089;-72
2024/02/16 13:50:34;;;;;;;5.43;2.70;;;12.30;99.90;;;;;;8420689;28;20055;-72
2024/02/16 13:54:36;;;;;;;5.95;2.85;;;12.30;99.90;;;;;;8421262;28;20479;-72
2024/02/16 13:58:39;;;;;;;6.07;2.75;;;12.30;99.90;;;;;;8418345;28;20139;-72
2024/02/16 14:02:41;;;;;;;5.15;2.80;;;12.30;99.90;;;;;;8428960;28;20134;-73
2024/02/16 14:06:43;;;;;;;4.88;2.58;;;12.30;99.90;;;;;;8415028;28;20117;-72
2024/02/16 14:10:45;;;;;;;5.15;2.63;;;12.20;99.90;;;;;;8416667;28;20048;-72
2024/02/16 14:14:48;;;;;;;5.30;2.90;;;12.10;99.90;;;;;;8421738;28;20149;-74
2024/02/16 14:18:52;;;;;;;6.18;3.30;;;12.10;99.90;;;;;;8427457;28;21996;-72
2024/02/16 14:22:54;;;;;;;6.45;3.25;;;12.10;99.90;;;;;;8432217;28;20059;-73
2024/02/16 14:26:55;;;;;;;5.65;3.17;;;12.00;99.90;;;;;;8421129;28;20059;-72
2024/02/16 14:30:57;;;;;;;7.43;4.18;;;12.00;99.90;;;;;;8420552;28;20040;-72
2024/02/16 14:35:05;;;;;;;7.38;3.55;;;12.00;99.90;;;;;;8431796;28;20047;-72
2024/02/16 14:39:08;;;;;;;7.32;4.07;;;12.00;99.90;;;;;;8419707;28;20047;-72
2024/02/16 14:43:10;;;;;;;7.38;3.97;;;12.00;99.90;;;;;;8417271;28;20286;-73
2024/02/16 14:47:12;;;;;;;6.60;4.10;;;12.10;99.90;;;;;;8418385;28;20040;-72
2024/02/16 14:51:14;;;;;;;9.18;4.82;;;12.10;99.90;;;;;;8434138;28;20044;-72
2024/02/16 14:55:16;;;;;;;6.95;4.00;;;12.10;99.90;;;;;;8431663;28;20046;-72
2024/02/16 14:59:18;;;;;;;8.50;4.78;;;12.20;99.90;;;;;;8421047;28;20263;-72
2024/02/16 15:03:20;;;;;;;8.05;4.57;;;12.20;99.90;;;;;;8432181;28;20044;-72
2024/02/16 15:07:22;;;;;;;8.48;5.05;;;12.30;99.90;;;;;;8424888;28;20094;-72
2024/02/16 15:11:23;;;;;;;8.85;4.80;;;12.30;99.90;;;;;;8427678;28;20047;-73
2024/02/16 15:15:25;;;;;;;11.73;4.97;;;12.30;99.90;;;;;;8424565;28;20060;-72
2024/02/16 15:19:27;;;;;;;8.27;4.72;;;12.30;99.90;;;;;;8431553;28;20047;-73
2024/02/16 15:23:29;;;;;;;7.80;5.18;;;12.40;99.90;;;;;;8429543;28;20047;-72
2024/02/16 15:27:30;;;;;;;10.80;6.60;;;12.30;99.90;;;;;;8433920;28;20058;-72
2024/02/16 15:31:33;;;;;;;9.80;5.97;;;12.30;99.90;;;;;;8428183;28;20368;-72
2024/02/16 15:35:36;;;;;;;11.55;7.32;;;12.30;99.90;;;;;;8424374;28;20294;-72
2024/02/16 15:39:39;;;;;;;12.30;7.68;;;12.20;99.90;;;;;;8421849;28;20052;-72
2024/02/16 15:43:41;;;;;;;13.45;8.32;;;12.20;99.90;;;;;;8427414;28;20055;-72
2024/02/16 15:47:42;;;;;;;10.95;7.28;;;12.30;99.90;;;;;;8427633;28;20044;-73
2024/02/16 15:51:44;;;;;;;13.50;8.15;;;12.30;99.90;;;;;;8426275;28;20036;-73
2024/02/16 15:55:46;;;;;;;13.23;7.75;;;12.30;99.90;;;;;;8454368;27;20052;-72
2024/02/16 15:59:48;;;;;;;11.90;7.35;;;12.30;99.90;;;;;;8424069;28;20176;-72
2024/02/16 16:03:50;;;;;;;12.32;7.07;;;12.30;99.90;;;;;;8425087;28;20508;-72
2024/02/16 16:07:52;;;;;;;11.65;7.40;;;12.30;99.90;;;;;;8422194;28;20509;-72
2024/02/16 16:11:54;;;;;;;15.00;6.70;;;12.30;99.90;;;;;;8430315;28;20571;-72
2024/02/16 16:15:56;;;;;;;14.38;7.40;;;12.30;99.90;;;;;;8421121;28;20064;-73
2024/02/16 16:19:59;;;;;;;12.40;7.80;;;12.30;99.90;;;;;;8433653;28;20043;-72
2024/02/16 16:24:05;;;;;;;11.18;7.30;;;12.30;99.90;;;;;;8421221;28;20044;-72
2024/02/16 16:28:08;;;;;;;12.15;6.60;;;12.30;99.90;;;;;;8422167;28;20085;-72
2024/02/16 16:32:10;;;;;;;8.23;5.30;;;12.30;99.90;;;;;;8433745;28;20044;-72
2024/02/16 16:36:14;;;;;;;9.02;5.05;;;12.20;99.90;;;;;;8425875;28;20097;-72
2024/02/16 16:40:16;;;;;;;9.10;6.28;;;12.20;99.90;;;;;;8435527;28;20048;-72
2024/02/16 16:44:19;;;;;;;11.00;6.70;;;12.10;99.90;;;;;;8431901;28;20063;-72
2024/02/16 16:48:20;;;;;;;10.27;6.13;;;12.10;99.90;;;;;;8425693;28;20040;-72
2024/02/16 16:52:23;;;;;;;10.80;6.90;;;12.10;99.90;;;;;;8422677;28;20395;-72
2024/02/16 16:56:25;;;;;;;9.55;5.95;;;12.20;99.90;;;;;;8425014;28;20047;-72
2024/02/16 17:00:27;;;;;;;10.55;6.57;;;12.10;99.90;;;;;;8420607;28;20056;-72
2024/02/16 17:04:34;;;;;;;11.13;6.47;;;12.10;99.90;;;;;;8423286;28;20507;-72
2024/02/16 17:08:36;;;;;;;14.15;6.82;;;12.10;99.90;;;;;;8423653;28;20047;-72
2024/02/16 17:12:41;;;;;;;11.45;7.00;;;12.10;99.90;;;;;;8418295;28;20403;-72
2024/02/16 17:16:45;;;;;;;10.35;6.00;;;12.00;99.90;;;;;;8416195;28;20032;-72
2024/02/16 17:20:48;;;;;;;9.30;5.63;;;12.00;99.90;;;;;;8432698;28;20055;-72
2024/02/16 17:24:49;;;;;;;12.57;6.70;;;12.00;99.90;;;;;;8429764;28;20048;-72
2024/02/16 17:28:51;;;;;;;11.75;6.78;;;11.90;99.90;;;;;;8431177;28;20075;-72
2024/02/16 17:32:54;;;;;;;11.35;6.22;;;11.90;99.90;;;;;;8419233;28;20495;-72
2024/02/16 17:36:57;;;;;;;11.02;6.68;;;11.90;99.90;;;;;;8420865;28;20039;-72
2024/02/16 17:40:59;;;;;;;9.95;5.72;;;11.90;99.90;;;;;;8423325;28;20526;-72
2024/02/16 17:45:06;;;;;;;9.93;6.40;;;11.90;99.90;;;;;;8419095;28;20074;-73
2024/02/16 17:49:08;;;;;;;11.18;6.03;;;11.90;99.90;;;;;;8422974;28;20140;-72
2024/02/16 17:53:10;;;;;;;10.13;5.97;;;11.80;99.90;;;;;;8422862;28;20499;-72
2024/02/16 17:57:12;;;;;;;11.02;6.68;;;11.80;99.90;;;;;;8424312;28;20105;-72
2024/02/16 18:01:14;;;;;;;10.85;6.20;;;11.90;99.90;;;;;;8420317;28;20521;-72
2024/02/16 18:05:16;;;;;;;10.65;6.15;;;11.80;99.90;;;;;;8421823;28;20048;-73
2024/02/16 18:09:17;;;;;;;10.25;5.32;;;11.80;99.90;;;;;;8422656;28;20047;-73
2024/02/16 18:13:21;;;;;;;11.23;5.95;;;11.80;99.90;;;;;;8420436;28;20036;-73
2024/02/16 18:17:23;;;;;;;10.93;6.20;;;11.80;99.90;;;;;;8423541;28;20052;-73
2024/02/16 18:21:24;;;;;;;10.23;6.43;;;11.80;99.90;;;;;;8421708;28;20079;-73
2024/02/16 18:25:26;;;;;;;9.70;5.60;;;11.80;99.90;;;;;;8425672;28;20062;-73
2024/02/16 18:29:28;;;;;;;12.02;6.63;;;11.80;99.90;;;;;;8420445;28;20109;-73
2024/02/16 18:33:30;;;;;;;10.38;6.53;;;11.70;99.90;;;;;;8423577;28;20039;-73
2024/02/16 18:37:32;;;;;;;13.45;7.43;;;11.70;99.90;;;;;;8419353;28;20044;-73
2024/02/16 18:41:49;;;;;;;12.30;7.57;;;11.70;99.90;;;;;;8422486;28;20055;-73
2024/02/16 18:45:52;;;;;;;14.70;8.45;;;11.70;99.90;;;;;;8425950;28;20055;-73
2024/02/16 18:49:54;;;;;;;13.00;8.40;;;11.60;99.90;;;;;;8438444;28;20039;-73
2024/02/16 18:53:56;;;;;;;12.40;7.85;;;11.50;99.90;;;;;;8432399;28;20040;-73
2024/02/16 18:57:58;;;;;;;13.35;8.35;;;11.50;99.90;;;;;;8430451;27;20040;-73
2024/02/16 19:02:01;;;;;;;13.23;8.25;;;11.40;99.90;;;;;;8424843;28;20518;-73
2024/02/16 19:06:31;;;;;;;16.15;8.32;;;11.30;99.90;;;;;;8426576;28;20576;-73
2024/02/16 19:10:34;;;;;;;13.50;8.05;;;11.30;99.90;;;;;;8430581;27;20056;-73
2024/02/16 19:14:35;;;;;;;10.90;7.30;;;11.20;99.90;;;;;;8425155;28;20036;-73
2024/02/16 19:18:37;;;;;;;13.02;7.65;;;11.20;99.90;;;;;;8428422;28;20051;-73
2024/02/16 19:22:39;;;;;;;13.35;6.70;;;11.10;99.90;;;;;;8427826;28;20048;-73
2024/02/16 19:26:41;;;;;;;13.48;7.38;;;11.10;99.90;;;;;;8428262;28;21649;-73
2024/02/16 19:30:43;;;;;;;13.25;7.53;;;11.10;99.90;;;;;;8426749;28;20048;-73
2024/02/16 19:34:45;;;;;;;16.40;7.53;;;11.10;99.90;;;;;;8428903;28;20123;-73
2024/02/16 19:38:47;;;;;;;15.63;7.93;;;11.10;99.90;;;;;;8425600;28;20075;-73
2024/02/16 19:42:48;;;;;;;12.57;6.88;;;11.10;99.90;;;;;;8426800;28;20044;-73
2024/02/16 19:46:50;;;;;;;12.75;7.55;;;11.10;99.90;;;;;;8427014;28;20048;-73
2024/02/16 19:50:53;;;;;;;12.95;7.20;;;11.10;99.90;;;;;;8425145;28;20047;-73
2024/02/16 19:54:57;;;;;;;11.95;7.53;;;11.10;99.90;;;;;;8430948;28;20131;-73
2024/02/16 19:58:59;;;;;;;12.18;6.32;;;11.00;99.90;;;;;;8436156;28;20048;-73
2024/02/16 20:03:01;;;;;;;10.90;6.78;;;11.00;99.90;;;;;;8426497;28;20057;-73
2024/02/16 20:07:03;;;;;;;14.23;7.78;;;10.90;99.90;;;;;;8428849;28;20056;-73
2024/02/16 20:11:05;;;;;;;15.35;7.75;;;10.80;99.90;;;;;;8456342;27;20072;-73
2024/02/16 20:15:07;;;;;;;11.80;7.20;;;10.80;99.90;;;;;;8427065;28;20052;-73
2024/02/16 20:19:09;;;;;;;14.93;7.28;;;10.70;99.90;;;;;;8438774;28;20067;-73
2024/02/16 20:23:33;;;;;;;13.60;7.65;;;10.70;99.90;;;;;;8438285;28;20046;-73
2024/02/16 20:27:36;;;;;;;14.40;6.95;;;10.70;99.90;;;;;;8426438;28;20047;-73
2024/02/16 20:31:39;;;;;;;11.35;6.85;;;10.70;99.90;;;;;;8426215;28;20054;-73
2024/02/16 20:35:41;;;;;;;10.15;6.50;;;10.70;99.90;;;;;;8420741;28;20410;-73
2024/02/16 20:39:43;;;;;;;12.55;7.43;;;10.70;99.90;;;;;;8453539;27;20543;-73
2024/02/16 20:43:44;;;;;;;10.35;6.68;;;10.70;99.90;;;;;;8421951;28;20091;-73
2024/02/16 20:47:47;;;;;;;15.40;7.20;;;10.70;99.90;;;;;;8421659;28;20149;-73
2024/02/16 20:51:49;;;;;;;13.02;6.93;;;10.70;99.90;;;;;;8426304;28;20058;-73
2024/02/16 20:55:51;;;;;;;13.52;7.70;;;10.70;99.90;;;;;;8421621;27;20101;-73
2024/02/16 20:59:52;;;;;;;12.15;7.32;;;10.70;99.90;;;;;;8423684;28;20476;-73
2024/02/16 21:03:54;;;;;;;12.32;7.28;;;10.60;99.90;;;;;;8426102;28;20062;-73
2024/02/16 21:07:56;;;;;;;13.45;7.60;;;10.60;99.90;;;;;;8425808;28;20047;-73
2024/02/16 21:11:59;;;;;;;14.27;6.88;;;10.60;99.90;;;;;;8428373;28;20067;-73
2024/02/16 21:16:03;;;;;;;9.95;6.47;;;10.60;99.90;;;;;;8424466;28;21475;-73